sensor_id;sensor_type;location;lat;lon;timestamp;P1;durP1;ratioP1;P2;durP2;ratioP2
18455;SDS011;9357;49.900;8.208;2023-04-16T00:00:06;11.00;;;8.57;;
18455;SDS011;9357;49.900;8.208;2023-04-16T00:01:40;11.23;;;8.95;;
18455;SDS011;9357;49.900;8.208;2023-04-16T00:03:12;10.13;;;8.65;;
18455;SDS011;9357;49.900;8.208;2023-04-16T00:04:47;12.77;;;9.48;;
18455;SDS011;9357;49.900;8.208;2023-04-16T00:06:20;11.98;;;9.40;;
18455;SDS011;9357;49.900;8.208;2023-04-16T00:07:53;11.82;;;9.40;;
18455;SDS011;9357;49.900;8.208;2023-04-16T00:09:26;11.85;;;9.95;;
18455;SDS011;9357;49.900;8.208;2023-04-16T00:10:59;12.15;;;9.73;;
18455;SDS011;9357;49.900;8.208;2023-04-16T00:12:31;12.60;;;10.25;;
18455;SDS011;9357;49.900;8.208;2023-04-16T00:14:04;11.73;;;10.05;;
18455;SDS011;9357;49.900;8.208;2023-04-16T00:15:37;11.40;;;9.98;;
18455;SDS011;9357;49.900;8.208;2023-04-16T00:17:09;12.13;;;9.88;;
18455;SDS011;9357;49.900;8.208;2023-04-16T00:18:41;12.40;;;10.13;;
18455;SDS011;9357;49.900;8.208;2023-04-16T00:20:16;13.45;;;10.82;;
18455;SDS011;9357;49.900;8.208;2023-04-16T00:21:50;13.60;;;10.90;;
18455;SDS011;9357;49.900;8.208;2023-04-16T00:23:22;13.57;;;11.23;;
18455;SDS011;9357;49.900;8.208;2023-04-16T00:24:55;12.85;;;10.90;;
18455;SDS011;9357;49.900;8.208;2023-04-16T00:26:28;12.88;;;10.55;;
18455;SDS011;9357;49.900;8.208;2023-04-16T00:28:00;14.90;;;11.17;;
18455;SDS011;9357;49.900;8.208;2023-04-16T00:29:33;15.18;;;11.52;;
18455;SDS011;9357;49.900;8.208;2023-04-16T00:31:05;13.77;;;10.93;;
18455;SDS011;9357;49.900;8.208;2023-04-16T00:32:38;14.23;;;11.95;;
18455;SDS011;9357;49.900;8.208;2023-04-16T00:34:11;14.75;;;11.63;;
18455;SDS011;9357;49.900;8.208;2023-04-16T00:35:45;16.17;;;11.80;;
18455;SDS011;9357;49.900;8.208;2023-04-16T00:37:18;15.02;;;11.43;;
18455;SDS011;9357;49.900;8.208;2023-04-16T00:38:50;14.38;;;11.65;;
18455;SDS011;9357;49.900;8.208;2023-04-16T00:40:23;16.23;;;11.40;;
18455;SDS011;9357;49.900;8.208;2023-04-16T00:41:57;16.13;;;11.90;;
18455;SDS011;9357;49.900;8.208;2023-04-16T00:43:30;14.20;;;11.25;;
18455;SDS011;9357;49.900;8.208;2023-04-16T00:45:03;14.48;;;12.07;;
18455;SDS011;9357;49.900;8.208;2023-04-16T00:46:36;14.88;;;12.35;;
18455;SDS011;9357;49.900;8.208;2023-04-16T00:48:09;13.25;;;10.98;;
18455;SDS011;9357;49.900;8.208;2023-04-16T00:49:42;13.93;;;11.13;;
18455;SDS011;9357;49.900;8.208;2023-04-16T00:51:17;15.07;;;12.07;;
18455;SDS011;9357;49.900;8.208;2023-04-16T00:52:51;16.10;;;11.48;;
18455;SDS011;9357;49.900;8.208;2023-04-16T00:54:23;14.13;;;11.50;;
18455;SDS011;9357;49.900;8.208;2023-04-16T00:55:56;14.10;;;11.73;;
18455;SDS011;9357;49.900;8.208;2023-04-16T00:57:30;13.02;;;11.18;;
18455;SDS011;9357;49.900;8.208;2023-04-16T00:59:02;15.02;;;11.70;;
18455;SDS011;9357;49.900;8.208;2023-04-16T01:00:35;14.57;;;11.70;;
18455;SDS011;9357;49.900;8.208;2023-04-16T01:02:07;14.98;;;11.50;;
18455;SDS011;9357;49.900;8.208;2023-04-16T01:03:42;14.68;;;12.10;;
18455;SDS011;9357;49.900;8.208;2023-04-16T01:05:17;15.93;;;12.52;;
18455;SDS011;9357;49.900;8.208;2023-04-16T01:06:51;16.77;;;12.45;;
18455;SDS011;9357;49.900;8.208;2023-04-16T01:08:24;16.83;;;12.50;;
18455;SDS011;9357;49.900;8.208;2023-04-16T01:09:56;16.05;;;11.90;;
18455;SDS011;9357;49.900;8.208;2023-04-16T01:11:29;17.70;;;13.27;;
18455;SDS011;9357;49.900;8.208;2023-04-16T01:13:02;15.32;;;11.60;;
18455;SDS011;9357;49.900;8.208;2023-04-16T01:14:35;14.20;;;11.60;;
18455;SDS011;9357;49.900;8.208;2023-04-16T01:16:07;14.63;;;11.65;;
18455;SDS011;9357;49.900;8.208;2023-04-16T01:17:42;17.08;;;11.70;;
18455;SDS011;9357;49.900;8.208;2023-04-16T01:19:16;16.92;;;11.98;;
18455;SDS011;9357;49.900;8.208;2023-04-16T01:20:49;14.20;;;11.15;;
18455;SDS011;9357;49.900;8.208;2023-04-16T01:22:22;14.65;;;11.10;;
18455;SDS011;9357;49.900;8.208;2023-04-16T01:23:55;13.85;;;11.13;;
18455;SDS011;9357;49.900;8.208;2023-04-16T01:25:28;17.30;;;12.13;;
18455;SDS011;9357;49.900;8.208;2023-04-16T01:27:00;14.80;;;11.75;;
18455;SDS011;9357;49.900;8.208;2023-04-16T01:28:33;15.13;;;11.57;;
18455;SDS011;9357;49.900;8.208;2023-04-16T01:30:06;13.18;;;10.70;;
18455;SDS011;9357;49.900;8.208;2023-04-16T01:31:39;15.93;;;11.68;;
18455;SDS011;9357;49.900;8.208;2023-04-16T01:33:12;14.52;;;10.52;;
18455;SDS011;9357;49.900;8.208;2023-04-16T01:34:45;14.88;;;11.40;;
18455;SDS011;9357;49.900;8.208;2023-04-16T01:36:20;15.32;;;11.68;;
18455;SDS011;9357;49.900;8.208;2023-04-16T01:37:52;14.65;;;11.23;;
18455;SDS011;9357;49.900;8.208;2023-04-16T01:39:24;13.80;;;11.07;;
18455;SDS011;9357;49.900;8.208;2023-04-16T01:40:57;14.63;;;11.27;;
18455;SDS011;9357;49.900;8.208;2023-04-16T01:42:29;14.43;;;11.50;;
18455;SDS011;9357;49.900;8.208;2023-04-16T01:44:03;15.43;;;11.45;;
18455;SDS011;9357;49.900;8.208;2023-04-16T01:45:35;14.98;;;11.18;;
18455;SDS011;9357;49.900;8.208;2023-04-16T01:47:07;14.93;;;11.20;;
18455;SDS011;9357;49.900;8.208;2023-04-16T01:48:40;16.35;;;11.75;;
18455;SDS011;9357;49.900;8.208;2023-04-16T01:50:13;16.33;;;11.75;;
18455;SDS011;9357;49.900;8.208;2023-04-16T01:51:47;15.05;;;11.30;;
18455;SDS011;9357;49.900;8.208;2023-04-16T01:53:20;14.90;;;11.02;;
18455;SDS011;9357;49.900;8.208;2023-04-16T01:54:53;14.57;;;10.57;;
18455;SDS011;9357;49.900;8.208;2023-04-16T01:56:26;15.73;;;11.20;;
18455;SDS011;9357;49.900;8.208;2023-04-16T01:57:59;14.65;;;10.93;;
18455;SDS011;9357;49.900;8.208;2023-04-16T01:59:31;12.77;;;10.52;;
18455;SDS011;9357;49.900;8.208;2023-04-16T02:01:04;15.75;;;11.55;;
18455;SDS011;9357;49.900;8.208;2023-04-16T02:02:37;14.70;;;11.20;;
18455;SDS011;9357;49.900;8.208;2023-04-16T02:04:11;16.45;;;12.07;;
18455;SDS011;9357;49.900;8.208;2023-04-16T02:05:44;15.68;;;12.27;;
18455;SDS011;9357;49.900;8.208;2023-04-16T02:07:18;18.13;;;12.32;;
18455;SDS011;9357;49.900;8.208;2023-04-16T02:08:51;17.38;;;12.27;;
18455;SDS011;9357;49.900;8.208;2023-04-16T02:10:24;14.45;;;11.10;;
18455;SDS011;9357;49.900;8.208;2023-04-16T02:11:56;16.13;;;12.32;;
18455;SDS011;9357;49.900;8.208;2023-04-16T02:13:28;14.70;;;11.32;;
18455;SDS011;9357;49.900;8.208;2023-04-16T02:15:00;15.25;;;11.60;;
18455;SDS011;9357;49.900;8.208;2023-04-16T02:16:33;14.45;;;11.00;;
18455;SDS011;9357;49.900;8.208;2023-04-16T02:18:06;14.48;;;10.90;;
18455;SDS011;9357;49.900;8.208;2023-04-16T02:19:39;13.73;;;10.93;;
18455;SDS011;9357;49.900;8.208;2023-04-16T02:21:12;14.52;;;10.50;;
18455;SDS011;9357;49.900;8.208;2023-04-16T02:22:46;14.35;;;10.68;;
18455;SDS011;9357;49.900;8.208;2023-04-16T02:24:17;14.40;;;11.18;;
18455;SDS011;9357;49.900;8.208;2023-04-16T02:25:50;13.98;;;11.07;;
18455;SDS011;9357;49.900;8.208;2023-04-16T02:27:22;15.38;;;11.15;;
18455;SDS011;9357;49.900;8.208;2023-04-16T02:28:55;15.50;;;11.32;;
18455;SDS011;9357;49.900;8.208;2023-04-16T02:30:28;14.00;;;10.68;;
18455;SDS011;9357;49.900;8.208;2023-04-16T02:32:01;14.90;;;10.70;;
18455;SDS011;9357;49.900;8.208;2023-04-16T02:33:34;14.57;;;11.02;;
18455;SDS011;9357;49.900;8.208;2023-04-16T02:35:07;16.10;;;11.13;;
18455;SDS011;9357;49.900;8.208;2023-04-16T02:36:38;14.80;;;10.50;;
18455;SDS011;9357;49.900;8.208;2023-04-16T02:38:13;15.25;;;11.15;;
18455;SDS011;9357;49.900;8.208;2023-04-16T02:39:46;15.63;;;10.98;;
18455;SDS011;9357;49.900;8.208;2023-04-16T02:41:19;15.25;;;10.73;;
18455;SDS011;9357;49.900;8.208;2023-04-16T02:42:51;13.73;;;10.32;;
18455;SDS011;9357;49.900;8.208;2023-04-16T02:44:24;15.63;;;11.52;;
18455;SDS011;9357;49.900;8.208;2023-04-16T02:46:00;16.48;;;11.77;;
18455;SDS011;9357;49.900;8.208;2023-04-16T02:47:33;15.50;;;11.70;;
18455;SDS011;9357;49.900;8.208;2023-04-16T02:49:04;14.60;;;11.05;;
18455;SDS011;9357;49.900;8.208;2023-04-16T02:50:37;15.65;;;11.40;;
18455;SDS011;9357;49.900;8.208;2023-04-16T02:52:10;14.75;;;11.20;;
18455;SDS011;9357;49.900;8.208;2023-04-16T02:53:47;14.32;;;11.43;;
18455;SDS011;9357;49.900;8.208;2023-04-16T02:55:19;14.30;;;10.73;;
18455;SDS011;9357;49.900;8.208;2023-04-16T02:56:52;15.40;;;11.27;;
18455;SDS011;9357;49.900;8.208;2023-04-16T02:58:25;14.68;;;10.50;;
18455;SDS011;9357;49.900;8.208;2023-04-16T02:59:58;14.93;;;11.02;;
18455;SDS011;9357;49.900;8.208;2023-04-16T03:01:31;14.23;;;11.30;;
18455;SDS011;9357;49.900;8.208;2023-04-16T03:03:03;15.57;;;11.20;;
18455;SDS011;9357;49.900;8.208;2023-04-16T03:04:35;14.88;;;10.98;;
18455;SDS011;9357;49.900;8.208;2023-04-16T03:06:07;12.93;;;10.15;;
18455;SDS011;9357;49.900;8.208;2023-04-16T03:07:40;16.00;;;11.80;;
18455;SDS011;9357;49.900;8.208;2023-04-16T03:09:14;14.55;;;11.13;;
18455;SDS011;9357;49.900;8.208;2023-04-16T03:10:46;13.98;;;10.68;;
18455;SDS011;9357;49.900;8.208;2023-04-16T03:12:19;14.10;;;10.55;;
18455;SDS011;9357;49.900;8.208;2023-04-16T03:13:52;14.35;;;10.55;;
18455;SDS011;9357;49.900;8.208;2023-04-16T03:15:24;15.30;;;10.40;;
18455;SDS011;9357;49.900;8.208;2023-04-16T03:16:57;11.32;;;9.43;;
18455;SDS011;9357;49.900;8.208;2023-04-16T03:18:30;13.20;;;10.20;;
18455;SDS011;9357;49.900;8.208;2023-04-16T03:20:03;12.95;;;10.05;;
18455;SDS011;9357;49.900;8.208;2023-04-16T03:21:37;12.73;;;9.38;;
18455;SDS011;9357;49.900;8.208;2023-04-16T03:23:08;12.10;;;9.48;;
18455;SDS011;9357;49.900;8.208;2023-04-16T03:24:42;12.43;;;9.43;;
18455;SDS011;9357;49.900;8.208;2023-04-16T03:26:15;12.35;;;9.27;;
18455;SDS011;9357;49.900;8.208;2023-04-16T03:27:48;12.27;;;9.23;;
18455;SDS011;9357;49.900;8.208;2023-04-16T03:29:21;11.75;;;8.63;;
18455;SDS011;9357;49.900;8.208;2023-04-16T03:30:52;11.00;;;8.23;;
18455;SDS011;9357;49.900;8.208;2023-04-16T03:32:25;11.13;;;8.65;;
18455;SDS011;9357;49.900;8.208;2023-04-16T03:33:58;10.73;;;8.10;;
18455;SDS011;9357;49.900;8.208;2023-04-16T03:35:31;11.82;;;8.88;;
18455;SDS011;9357;49.900;8.208;2023-04-16T03:37:03;10.45;;;8.30;;
18455;SDS011;9357;49.900;8.208;2023-04-16T03:38:36;10.90;;;8.27;;
18455;SDS011;9357;49.900;8.208;2023-04-16T03:40:11;9.23;;;7.65;;
18455;SDS011;9357;49.900;8.208;2023-04-16T03:41:44;9.63;;;7.50;;
18455;SDS011;9357;49.900;8.208;2023-04-16T03:43:17;10.40;;;7.60;;
18455;SDS011;9357;49.900;8.208;2023-04-16T03:44:50;9.15;;;6.97;;
18455;SDS011;9357;49.900;8.208;2023-04-16T03:46:23;8.10;;;7.13;;
18455;SDS011;9357;49.900;8.208;2023-04-16T03:47:56;11.07;;;7.88;;
18455;SDS011;9357;49.900;8.208;2023-04-16T03:49:28;9.07;;;6.88;;
18455;SDS011;9357;49.900;8.208;2023-04-16T03:51:01;9.32;;;7.70;;
18455;SDS011;9357;49.900;8.208;2023-04-16T03:52:32;10.40;;;7.68;;
18455;SDS011;9357;49.900;8.208;2023-04-16T03:54:06;8.70;;;7.63;;
18455;SDS011;9357;49.900;8.208;2023-04-16T03:55:40;10.85;;;8.13;;
18455;SDS011;9357;49.900;8.208;2023-04-16T03:57:12;9.48;;;7.97;;
18455;SDS011;9357;49.900;8.208;2023-04-16T03:58:45;10.18;;;7.85;;
18455;SDS011;9357;49.900;8.208;2023-04-16T04:00:16;12.30;;;9.20;;
18455;SDS011;9357;49.900;8.208;2023-04-16T04:01:49;12.07;;;8.63;;
18455;SDS011;9357;49.900;8.208;2023-04-16T04:03:22;9.88;;;8.27;;
18455;SDS011;9357;49.900;8.208;2023-04-16T04:04:54;10.90;;;8.50;;
18455;SDS011;9357;49.900;8.208;2023-04-16T04:06:27;10.77;;;8.30;;
18455;SDS011;9357;49.900;8.208;2023-04-16T04:08:00;10.20;;;8.07;;
18455;SDS011;9357;49.900;8.208;2023-04-16T04:09:32;10.98;;;8.27;;
18455;SDS011;9357;49.900;8.208;2023-04-16T04:11:06;11.02;;;8.38;;
18455;SDS011;9357;49.900;8.208;2023-04-16T04:12:38;10.80;;;8.30;;
18455;SDS011;9357;49.900;8.208;2023-04-16T04:14:10;10.00;;;8.23;;
18455;SDS011;9357;49.900;8.208;2023-04-16T04:15:43;9.43;;;7.85;;
18455;SDS011;9357;49.900;8.208;2023-04-16T04:17:14;10.80;;;8.30;;
18455;SDS011;9357;49.900;8.208;2023-04-16T04:18:47;11.27;;;8.95;;
18455;SDS011;9357;49.900;8.208;2023-04-16T04:20:19;11.43;;;8.48;;
18455;SDS011;9357;49.900;8.208;2023-04-16T04:21:52;12.40;;;8.63;;
18455;SDS011;9357;49.900;8.208;2023-04-16T04:23:24;11.52;;;8.88;;
18455;SDS011;9357;49.900;8.208;2023-04-16T04:24:57;12.93;;;8.98;;
18455;SDS011;9357;49.900;8.208;2023-04-16T04:26:31;11.77;;;9.07;;
18455;SDS011;9357;49.900;8.208;2023-04-16T04:28:04;11.23;;;8.85;;
18455;SDS011;9357;49.900;8.208;2023-04-16T04:29:37;11.15;;;8.95;;
18455;SDS011;9357;49.900;8.208;2023-04-16T04:31:09;11.43;;;8.63;;
18455;SDS011;9357;49.900;8.208;2023-04-16T04:32:41;11.80;;;9.30;;
18455;SDS011;9357;49.900;8.208;2023-04-16T04:34:14;10.52;;;9.10;;
18455;SDS011;9357;49.900;8.208;2023-04-16T04:35:47;11.27;;;8.65;;
18455;SDS011;9357;49.900;8.208;2023-04-16T04:37:19;10.50;;;8.52;;
18455;SDS011;9357;49.900;8.208;2023-04-16T04:38:52;11.65;;;9.18;;
18455;SDS011;9357;49.900;8.208;2023-04-16T04:40:25;11.60;;;9.07;;
18455;SDS011;9357;49.900;8.208;2023-04-16T04:41:59;10.90;;;8.38;;
18455;SDS011;9357;49.900;8.208;2023-04-16T04:43:33;11.15;;;8.38;;
18455;SDS011;9357;49.900;8.208;2023-04-16T04:45:06;11.52;;;8.77;;
18455;SDS011;9357;49.900;8.208;2023-04-16T04:46:40;11.43;;;9.20;;
18455;SDS011;9357;49.900;8.208;2023-04-16T04:48:13;10.02;;;7.95;;
18455;SDS011;9357;49.900;8.208;2023-04-16T04:49:45;11.63;;;8.88;;
18455;SDS011;9357;49.900;8.208;2023-04-16T04:51:18;9.80;;;7.97;;
18455;SDS011;9357;49.900;8.208;2023-04-16T04:52:51;12.07;;;8.60;;
18455;SDS011;9357;49.900;8.208;2023-04-16T04:54:24;10.05;;;8.02;;
18455;SDS011;9357;49.900;8.208;2023-04-16T04:55:56;10.95;;;8.40;;
18455;SDS011;9357;49.900;8.208;2023-04-16T04:57:44;12.77;;;9.57;;
18455;SDS011;9357;49.900;8.208;2023-04-16T04:59:16;12.23;;;9.50;;
18455;SDS011;9357;49.900;8.208;2023-04-16T05:00:49;12.88;;;9.18;;
18455;SDS011;9357;49.900;8.208;2023-04-16T05:02:21;13.07;;;9.60;;
18455;SDS011;9357;49.900;8.208;2023-04-16T05:03:54;12.38;;;9.77;;
18455;SDS011;9357;49.900;8.208;2023-04-16T05:05:26;14.70;;;10.05;;
18455;SDS011;9357;49.900;8.208;2023-04-16T05:06:59;14.10;;;10.52;;
18455;SDS011;9357;49.900;8.208;2023-04-16T05:08:32;14.20;;;10.00;;
18455;SDS011;9357;49.900;8.208;2023-04-16T05:10:05;12.48;;;9.68;;
18455;SDS011;9357;49.900;8.208;2023-04-16T05:11:40;15.23;;;10.43;;
18455;SDS011;9357;49.900;8.208;2023-04-16T05:13:14;15.10;;;10.40;;
18455;SDS011;9357;49.900;8.208;2023-04-16T05:14:47;13.70;;;10.52;;
18455;SDS011;9357;49.900;8.208;2023-04-16T05:16:20;14.65;;;10.52;;
18455;SDS011;9357;49.900;8.208;2023-04-16T05:17:52;17.83;;;10.60;;
18455;SDS011;9357;49.900;8.208;2023-04-16T05:19:26;15.73;;;11.55;;
18455;SDS011;9357;49.900;8.208;2023-04-16T05:20:58;18.08;;;11.95;;
18455;SDS011;9357;49.900;8.208;2023-04-16T05:22:31;17.42;;;11.70;;
18455;SDS011;9357;49.900;8.208;2023-04-16T05:24:04;18.02;;;11.95;;
18455;SDS011;9357;49.900;8.208;2023-04-16T05:25:37;21.02;;;13.13;;
18455;SDS011;9357;49.900;8.208;2023-04-16T05:27:10;18.98;;;13.52;;
18455;SDS011;9357;49.900;8.208;2023-04-16T05:28:44;18.13;;;12.70;;
18455;SDS011;9357;49.900;8.208;2023-04-16T05:30:17;19.60;;;12.73;;
18455;SDS011;9357;49.900;8.208;2023-04-16T05:31:50;19.52;;;12.75;;
18455;SDS011;9357;49.900;8.208;2023-04-16T05:33:22;17.13;;;12.32;;
18455;SDS011;9357;49.900;8.208;2023-04-16T05:34:55;17.85;;;11.77;;
18455;SDS011;9357;49.900;8.208;2023-04-16T05:36:28;17.15;;;12.35;;
18455;SDS011;9357;49.900;8.208;2023-04-16T05:38:01;19.52;;;13.05;;
18455;SDS011;9357;49.900;8.208;2023-04-16T05:39:34;21.05;;;13.60;;
18455;SDS011;9357;49.900;8.208;2023-04-16T05:41:07;19.92;;;12.93;;
18455;SDS011;9357;49.900;8.208;2023-04-16T05:42:39;21.77;;;14.60;;
18455;SDS011;9357;49.900;8.208;2023-04-16T05:44:13;24.15;;;14.82;;
18455;SDS011;9357;49.900;8.208;2023-04-16T05:45:46;24.25;;;14.98;;
18455;SDS011;9357;49.900;8.208;2023-04-16T05:47:19;26.77;;;16.30;;
18455;SDS011;9357;49.900;8.208;2023-04-16T05:48:52;26.48;;;16.75;;
18455;SDS011;9357;49.900;8.208;2023-04-16T05:50:24;25.30;;;16.50;;
18455;SDS011;9357;49.900;8.208;2023-04-16T05:51:57;29.23;;;16.73;;
18455;SDS011;9357;49.900;8.208;2023-04-16T05:53:30;27.80;;;17.48;;
18455;SDS011;9357;49.900;8.208;2023-04-16T05:55:03;24.92;;;15.55;;
18455;SDS011;9357;49.900;8.208;2023-04-16T05:56:37;26.02;;;15.27;;
18455;SDS011;9357;49.900;8.208;2023-04-16T05:58:09;28.23;;;17.67;;
18455;SDS011;9357;49.900;8.208;2023-04-16T05:59:43;26.42;;;16.80;;
18455;SDS011;9357;49.900;8.208;2023-04-16T06:01:16;25.77;;;16.33;;
18455;SDS011;9357;49.900;8.208;2023-04-16T06:02:49;26.70;;;17.00;;
18455;SDS011;9357;49.900;8.208;2023-04-16T06:04:22;30.10;;;18.08;;
18455;SDS011;9357;49.900;8.208;2023-04-16T06:05:55;24.35;;;15.02;;
18455;SDS011;9357;49.900;8.208;2023-04-16T06:07:28;19.23;;;12.35;;
18455;SDS011;9357;49.900;8.208;2023-04-16T06:09:01;27.88;;;17.35;;
18455;SDS011;9357;49.900;8.208;2023-04-16T06:10:34;24.45;;;15.13;;
18455;SDS011;9357;49.900;8.208;2023-04-16T06:12:07;23.13;;;15.00;;
18455;SDS011;9357;49.900;8.208;2023-04-16T06:13:40;21.27;;;13.18;;
18455;SDS011;9357;49.900;8.208;2023-04-16T06:15:15;26.65;;;16.80;;
18455;SDS011;9357;49.900;8.208;2023-04-16T06:16:47;22.40;;;14.77;;
18455;SDS011;9357;49.900;8.208;2023-04-16T06:18:21;22.48;;;12.95;;
18455;SDS011;9357;49.900;8.208;2023-04-16T06:19:53;24.33;;;14.98;;
18455;SDS011;9357;49.900;8.208;2023-04-16T06:21:27;23.20;;;14.88;;
18455;SDS011;9357;49.900;8.208;2023-04-16T06:22:59;25.27;;;15.18;;
18455;SDS011;9357;49.900;8.208;2023-04-16T06:24:32;24.05;;;14.90;;
18455;SDS011;9357;49.900;8.208;2023-04-16T06:26:05;20.80;;;14.30;;
18455;SDS011;9357;49.900;8.208;2023-04-16T06:27:37;26.75;;;16.45;;
18455;SDS011;9357;49.900;8.208;2023-04-16T06:29:09;20.20;;;13.90;;
18455;SDS011;9357;49.900;8.208;2023-04-16T06:30:45;22.23;;;12.88;;
18455;SDS011;9357;49.900;8.208;2023-04-16T06:32:17;20.60;;;13.43;;
18455;SDS011;9357;49.900;8.208;2023-04-16T06:33:50;20.40;;;13.48;;
18455;SDS011;9357;49.900;8.208;2023-04-16T06:35:23;22.27;;;14.73;;
18455;SDS011;9357;49.900;8.208;2023-04-16T06:36:56;19.77;;;12.68;;
18455;SDS011;9357;49.900;8.208;2023-04-16T06:38:29;20.20;;;13.23;;
18455;SDS011;9357;49.900;8.208;2023-04-16T06:40:02;19.30;;;13.30;;
18455;SDS011;9357;49.900;8.208;2023-04-16T06:41:35;21.10;;;13.55;;
18455;SDS011;9357;49.900;8.208;2023-04-16T06:43:07;23.60;;;14.68;;
18455;SDS011;9357;49.900;8.208;2023-04-16T06:44:40;21.93;;;14.43;;
18455;SDS011;9357;49.900;8.208;2023-04-16T06:46:14;19.47;;;13.27;;
18455;SDS011;9357;49.900;8.208;2023-04-16T06:47:47;20.73;;;14.73;;
18455;SDS011;9357;49.900;8.208;2023-04-16T06:49:21;26.27;;;15.33;;
18455;SDS011;9357;49.900;8.208;2023-04-16T06:50:54;21.85;;;15.05;;
18455;SDS011;9357;49.900;8.208;2023-04-16T06:52:27;22.97;;;14.57;;
18455;SDS011;9357;49.900;8.208;2023-04-16T06:53:59;22.98;;;14.25;;
18455;SDS011;9357;49.900;8.208;2023-04-16T06:55:32;23.70;;;14.88;;
18455;SDS011;9357;49.900;8.208;2023-04-16T06:57:05;22.02;;;15.02;;
18455;SDS011;9357;49.900;8.208;2023-04-16T06:58:37;21.90;;;14.70;;
18455;SDS011;9357;49.900;8.208;2023-04-16T07:00:10;24.40;;;15.43;;
18455;SDS011;9357;49.900;8.208;2023-04-16T07:01:45;23.70;;;15.38;;
18455;SDS011;9357;49.900;8.208;2023-04-16T07:03:18;23.23;;;15.27;;
18455;SDS011;9357;49.900;8.208;2023-04-16T07:04:51;23.27;;;14.73;;
18455;SDS011;9357;49.900;8.208;2023-04-16T07:06:24;22.90;;;15.25;;
18455;SDS011;9357;49.900;8.208;2023-04-16T07:07:57;23.05;;;15.35;;
18455;SDS011;9357;49.900;8.208;2023-04-16T07:09:30;22.80;;;14.87;;
18455;SDS011;9357;49.900;8.208;2023-04-16T07:11:03;21.27;;;14.97;;
18455;SDS011;9357;49.900;8.208;2023-04-16T07:12:36;23.90;;;14.10;;
18455;SDS011;9357;49.900;8.208;2023-04-16T07:14:09;21.88;;;14.32;;
18455;SDS011;9357;49.900;8.208;2023-04-16T07:15:42;21.02;;;13.77;;
18455;SDS011;9357;49.900;8.208;2023-04-16T07:17:16;19.90;;;13.37;;
18455;SDS011;9357;49.900;8.208;2023-04-16T07:18:48;19.75;;;12.90;;
18455;SDS011;9357;49.900;8.208;2023-04-16T07:20:21;21.55;;;13.52;;
18455;SDS011;9357;49.900;8.208;2023-04-16T07:21:54;19.63;;;13.55;;
18455;SDS011;9357;49.900;8.208;2023-04-16T07:23:27;20.52;;;13.80;;
18455;SDS011;9357;49.900;8.208;2023-04-16T07:24:59;20.38;;;13.73;;
18455;SDS011;9357;49.900;8.208;2023-04-16T07:26:32;19.13;;;12.38;;
18455;SDS011;9357;49.900;8.208;2023-04-16T07:28:05;18.33;;;13.33;;
18455;SDS011;9357;49.900;8.208;2023-04-16T07:29:37;20.03;;;13.57;;
18455;SDS011;9357;49.900;8.208;2023-04-16T07:31:09;17.90;;;13.10;;
18455;SDS011;9357;49.900;8.208;2023-04-16T07:32:44;18.42;;;12.93;;
18455;SDS011;9357;49.900;8.208;2023-04-16T07:34:17;21.07;;;13.37;;
18455;SDS011;9357;49.900;8.208;2023-04-16T07:35:49;18.80;;;13.27;;
18455;SDS011;9357;49.900;8.208;2023-04-16T07:37:22;18.27;;;12.60;;
18455;SDS011;9357;49.900;8.208;2023-04-16T07:38:55;21.70;;;13.85;;
18455;SDS011;9357;49.900;8.208;2023-04-16T07:40:28;20.98;;;13.55;;
18455;SDS011;9357;49.900;8.208;2023-04-16T07:42:01;17.77;;;12.23;;
18455;SDS011;9357;49.900;8.208;2023-04-16T07:43:34;20.63;;;13.52;;
18455;SDS011;9357;49.900;8.208;2023-04-16T07:45:07;20.75;;;13.48;;
18455;SDS011;9357;49.900;8.208;2023-04-16T07:46:40;20.75;;;13.38;;
18455;SDS011;9357;49.900;8.208;2023-04-16T07:48:19;19.25;;;13.15;;
18455;SDS011;9357;49.900;8.208;2023-04-16T07:49:52;20.00;;;13.57;;
18455;SDS011;9357;49.900;8.208;2023-04-16T07:51:26;19.73;;;13.20;;
18455;SDS011;9357;49.900;8.208;2023-04-16T07:52:59;20.43;;;14.00;;
18455;SDS011;9357;49.900;8.208;2023-04-16T07:54:32;22.47;;;14.40;;
18455;SDS011;9357;49.900;8.208;2023-04-16T07:56:05;23.30;;;14.13;;
18455;SDS011;9357;49.900;8.208;2023-04-16T07:57:39;20.85;;;13.77;;
18455;SDS011;9357;49.900;8.208;2023-04-16T07:59:11;19.80;;;13.40;;
18455;SDS011;9357;49.900;8.208;2023-04-16T08:00:54;20.75;;;13.90;;
18455;SDS011;9357;49.900;8.208;2023-04-16T08:02:26;20.63;;;13.17;;
18455;SDS011;9357;49.900;8.208;2023-04-16T08:04:01;21.45;;;13.60;;
18455;SDS011;9357;49.900;8.208;2023-04-16T08:05:34;21.70;;;14.10;;
18455;SDS011;9357;49.900;8.208;2023-04-16T08:07:07;16.83;;;12.10;;
18455;SDS011;9357;49.900;8.208;2023-04-16T08:08:40;21.77;;;13.40;;
18455;SDS011;9357;49.900;8.208;2023-04-16T08:10:12;21.30;;;13.43;;
18455;SDS011;9357;49.900;8.208;2023-04-16T08:11:45;20.63;;;13.27;;
18455;SDS011;9357;49.900;8.208;2023-04-16T08:13:19;19.53;;;13.27;;
18455;SDS011;9357;49.900;8.208;2023-04-16T08:14:52;22.23;;;13.27;;
18455;SDS011;9357;49.900;8.208;2023-04-16T08:16:23;22.05;;;14.40;;
18455;SDS011;9357;49.900;8.208;2023-04-16T08:17:56;21.45;;;14.40;;
18455;SDS011;9357;49.900;8.208;2023-04-16T08:19:31;20.97;;;13.33;;
18455;SDS011;9357;49.900;8.208;2023-04-16T08:21:03;21.52;;;13.85;;
18455;SDS011;9357;49.900;8.208;2023-04-16T08:22:36;21.13;;;12.32;;
18455;SDS011;9357;49.900;8.208;2023-04-16T08:24:09;19.23;;;13.27;;
18455;SDS011;9357;49.900;8.208;2023-04-16T08:25:42;20.08;;;13.05;;
18455;SDS011;9357;49.900;8.208;2023-04-16T08:27:14;20.42;;;13.07;;
18455;SDS011;9357;49.900;8.208;2023-04-16T08:28:50;18.73;;;12.02;;
18455;SDS011;9357;49.900;8.208;2023-04-16T08:30:23;19.33;;;12.52;;
18455;SDS011;9357;49.900;8.208;2023-04-16T08:31:56;19.20;;;12.15;;
18455;SDS011;9357;49.900;8.208;2023-04-16T08:33:28;18.40;;;12.40;;
18455;SDS011;9357;49.900;8.208;2023-04-16T08:35:03;17.73;;;11.80;;
18455;SDS011;9357;49.900;8.208;2023-04-16T08:36:36;17.02;;;11.45;;
18455;SDS011;9357;49.900;8.208;2023-04-16T08:38:09;17.97;;;12.03;;
18455;SDS011;9357;49.900;8.208;2023-04-16T08:39:41;18.10;;;12.03;;
18455;SDS011;9357;49.900;8.208;2023-04-16T08:41:14;17.45;;;11.45;;
18455;SDS011;9357;49.900;8.208;2023-04-16T08:42:47;17.50;;;10.98;;
18455;SDS011;9357;49.900;8.208;2023-04-16T08:44:24;15.70;;;11.00;;
18455;SDS011;9357;49.900;8.208;2023-04-16T08:45:59;16.42;;;11.43;;
18455;SDS011;9357;49.900;8.208;2023-04-16T08:47:32;14.23;;;11.27;;
18455;SDS011;9357;49.900;8.208;2023-04-16T08:49:06;15.00;;;10.70;;
18455;SDS011;9357;49.900;8.208;2023-04-16T08:50:41;13.90;;;9.83;;
18455;SDS011;9357;49.900;8.208;2023-04-16T08:52:17;14.60;;;10.70;;
18455;SDS011;9357;49.900;8.208;2023-04-16T08:53:51;14.35;;;9.88;;
18455;SDS011;9357;49.900;8.208;2023-04-16T08:55:25;16.17;;;10.85;;
18455;SDS011;9357;49.900;8.208;2023-04-16T08:57:06;15.05;;;10.50;;
18455;SDS011;9357;49.900;8.208;2023-04-16T08:58:41;13.95;;;10.52;;
18455;SDS011;9357;49.900;8.208;2023-04-16T09:00:15;14.10;;;10.27;;
18455;SDS011;9357;49.900;8.208;2023-04-16T09:01:48;15.73;;;11.07;;
18455;SDS011;9357;49.900;8.208;2023-04-16T09:03:22;15.77;;;11.10;;
18455;SDS011;9357;49.900;8.208;2023-04-16T09:04:55;14.98;;;10.82;;
18455;SDS011;9357;49.900;8.208;2023-04-16T09:06:32;19.20;;;12.60;;
18455;SDS011;9357;49.900;8.208;2023-04-16T09:08:05;19.07;;;12.00;;
18455;SDS011;9357;49.900;8.208;2023-04-16T09:09:39;16.13;;;11.37;;
18455;SDS011;9357;49.900;8.208;2023-04-16T09:11:14;16.50;;;11.93;;
18455;SDS011;9357;49.900;8.208;2023-04-16T09:12:49;18.50;;;12.43;;
18455;SDS011;9357;49.900;8.208;2023-04-16T09:14:22;17.23;;;12.18;;